Terminal Aerodrome Forecast
Issued by NWS

Home | Current Version | Previous Version | Graphics & Text | Print | Product List | Glossary On
Versions: 1 2 3 4 5 6 7 8 9 10 11 12 13 14 15
000
FTUS43 KPAH 311120
TAFCGI
TAF
KCGI 311120Z 3112/0112 00000KT P6SM OVC080
      TEMPO 3112/3113 3SM BR
     FM311400 19006KT P6SM SCT040
     FM010000 VRB02KT P6SM SKC=

USA.gov is the U.S. government's official web portal to all federal, state and local government web resources and services.